METAR Data
IDs: Format: Raw Decoded Include TAF

Data at: 2123 UTC 01 Dec 2021

METAR for:KMGY (Dayton/Wright Brothe, OH, US)
Text:KMGY 012053Z AUTO 15007KT 10SM BKN037 OVC048 08/06 A2988 RMK AO2 RAB30E52 SLP122 P0003 60004 T00830056 56036
Temperature: 8.3°C ( 47°F)
Dewpoint: 5.6°C ( 42°F) [RH = 83%]
Pressure (altimeter):29.88 inches Hg (1011.9 mb) [Sea level pressure: 1012.2 mb]
Winds:from the SSE (150 degrees) at 8 MPH (7 knots; 3.6 m/s)
Visibility:10 or more sm (16+ km)
Ceiling:3700 feet AGL
Clouds: broken clouds at 3700 feet AGL, overcast cloud deck at 4800 feet AGL
QC Flag:automated observation with no human augmentation